Aérodrome :
LOGIN :

S'inscrire | Disclaimer

   EN    FR    IT 

 










Légende :    VFR   VFR Marginal   IFR   IFR Intensif   IFR Très Intensif
Visi : 
Plafond : 
>= 8 km
>= 3000ft
5 à 8 km
1000 à 3000 ft
1500m à 5 km
500 à 1000 ft
800 à 1500m
200 à 500 ft
< 800m
< 200 ft
Symboles :   Orages  Brouillard  Fortes neiges  Fortes précipitations  Vent > 20 kt
SIGMETs :   Divers  Orages  Givrage  Turbulence  Onde Orograph.  Cendres Volcan.






- Altitude de l'aérodrome : 17 ft
- Code IATA : KLR


ESMQ - Kalmar

DERNIER METAR :
  • 250050Z AUTO 08003KT 9999 FEW023/// BKN100/// M02/M02 Q0998

METARs EXPIRÉS :
  • 250020Z AUTO 00000KT 9999 FEW026/// SCT110/// M02/M03 Q0999
  • 242350Z AUTO 00000KT 9999 NCD M02/M03 Q1000
  • 242320Z AUTO 00000KT 9999 NCD M02/M03 Q1000
  • 242250Z AUTO 00000KT 9999 NCD M01/M02 Q1001
  • 242220Z AUTO 00000KT 9999 NCD M01/M02 Q1002

Prévision TAF périmée.



MET'MAP, la Météo Aéronautique d'un coup d'oeil ! - Copyright ORBIFLY Décembre 2007 - Disclaimer

ORBIFLY MET'MAP TEAM :

Programmation & Développement : Alexandra Zaïnal
Sur une idée originale de : Baudouin d'Aumeries
Assistance à la programmation : Marc-Olivier Méhu
Soutien technique & logistique : Manuel Goepfert

Contact : metmap@orbifly.com




SOURCES & CREDITS :

   NOAA